Kezdőlap
METAR-TAF:

METAR-TAF

Repülőterek :

Chesterfield Inlet, Nunavut, Kanada

földrajzi szélesség: 63-20N, földrajzi hosszúság: 090-43W, magasság: 11 m

Jelenlegi meteorológiai megfigyelések

A jelentés 24 perccel ezelõtt készült, 18:00 UTC
Északkeleti szél 27 kt széllökések: 35 kt
Hőmérséklet -19°C
Páratartalom 77%
Légköri nyomás 1046 hPa
Látótávolság: 1.6 km
Szórványos felhőzet 1400 lábon
Szakadozott felhőzet 15000 lábon
Jégtű, hófúvás

METAR: CYCS 011800Z 04027G35KT 1SM IC BLSN SCT014 BKN150 M19/M22 A3088 RMK BLSN2SC2AC2 SLP461

Idő: 13:24 (18:24 UTC)


TAF: hiányzik

Meteorológiai megfigyelések és előrejelzések több, mint 4000 repülőtéren (METAR és TAF jelentéseket).

A térképen piros és sárga pontok jelzik az elérhető meteorológiai állomásokat.

Mozgassa az egeret a pont fölött, hogy megjelenjen az állomás neve.

Azután kattintson az időjárási megfigyelések és előrejelzések megtekintéséhez.

A térkép megváltoztatása: kattintson a fekete keresztel jelölt zöld gombra ráközelítéshez, a vonallal jelölt zöld gombra távolításhoz, vagy a zöld nyilakra a szomszédos térképek eléréséhez.


METAR-TAF: